createdAt,value
2023-01-24T00:00:35.259Z,9.65
2023-01-24T00:03:02.327Z,11.60
2023-01-24T00:05:28.989Z,10.18
2023-01-24T00:07:55.951Z,10.98
2023-01-24T00:10:23.477Z,8.93
2023-01-24T00:12:50.171Z,9.82
2023-01-24T00:15:16.853Z,8.40
2023-01-24T00:17:43.681Z,8.00
2023-01-24T00:20:10.909Z,10.27
2023-01-24T00:22:37.506Z,11.43
2023-01-24T00:25:04.471Z,9.20
2023-01-24T00:27:32.400Z,8.50
2023-01-24T00:29:59.138Z,8.30
2023-01-24T00:32:25.806Z,7.72
2023-01-24T00:34:52.472Z,10.02
2023-01-24T00:37:19.083Z,10.88
2023-01-24T00:39:45.669Z,8.18
2023-01-24T00:42:12.361Z,8.88
2023-01-24T00:44:38.950Z,10.00
2023-01-24T00:47:05.568Z,8.98
2023-01-24T00:49:32.297Z,8.73
2023-01-24T00:51:59.099Z,10.27
2023-01-24T00:54:25.854Z,9.65
2023-01-24T00:56:52.501Z,8.57
2023-01-24T00:59:19.275Z,11.48
2023-01-24T01:01:45.902Z,10.68
2023-01-24T01:04:13.840Z,9.93
2023-01-24T01:06:40.663Z,9.20
2023-01-24T01:09:07.266Z,10.68
2023-01-24T01:11:33.842Z,8.73
2023-01-24T01:16:26.971Z,10.35
2023-01-24T01:18:55.441Z,10.38
2023-01-24T01:21:23.297Z,9.27
2023-01-24T01:23:50.067Z,9.77
2023-01-24T01:26:19.544Z,11.50
2023-01-24T01:28:46.903Z,11.57
2023-01-24T01:31:13.812Z,12.93
2023-01-24T01:33:40.724Z,10.77
2023-01-24T01:36:07.956Z,10.88
2023-01-24T01:38:34.610Z,10.63
2023-01-24T01:41:01.248Z,11.13
2023-01-24T01:43:29.879Z,10.77
2023-01-24T01:46:27.410Z,11.38
2023-01-24T01:48:57.889Z,11.75
2023-01-24T01:51:44.492Z,11.20
2023-01-24T01:54:46.100Z,11.50
2023-01-24T01:57:22.918Z,9.93
2023-01-24T02:00:14.916Z,10.65
2023-01-24T02:02:45.326Z,11.00
2023-01-24T02:05:18.215Z,10.77
2023-01-24T02:10:47.662Z,13.07
2023-01-24T02:13:14.454Z,10.55
2023-01-24T02:16:02.930Z,10.45
2023-01-24T02:18:31.900Z,11.52
2023-01-24T02:20:58.935Z,11.68
2023-01-24T02:23:39.778Z,13.35
2023-01-24T02:26:18.475Z,9.55
2023-01-24T02:28:57.788Z,13.13
2023-01-24T02:31:25.238Z,10.32
2023-01-24T02:33:51.905Z,12.98
2023-01-24T02:36:21.800Z,10.82
2023-01-24T02:39:10.428Z,9.50
2023-01-24T02:41:50.623Z,10.57
2023-01-24T02:44:53.010Z,9.98
2023-01-24T02:47:19.947Z,14.00
2023-01-24T02:49:46.615Z,12.43
2023-01-24T02:52:31.896Z,10.15
2023-01-24T02:54:58.682Z,11.70
2023-01-24T02:57:43.911Z,10.40
2023-01-24T03:00:12.168Z,10.32
2023-01-24T03:02:38.923Z,12.48
2023-01-24T03:05:06.034Z,10.30
2023-01-24T03:07:42.326Z,10.05
2023-01-24T03:10:11.027Z,9.85
2023-01-24T03:12:55.979Z,10.77
2023-01-24T03:15:41.955Z,7.53
2023-01-24T03:18:27.440Z,7.25
2023-01-24T03:23:58.333Z,8.20
2023-01-24T03:26:44.843Z,9.95
2023-01-24T03:29:30.426Z,9.55
2023-01-24T03:32:15.923Z,7.30
2023-01-24T03:37:40.243Z,8.68
2023-01-24T03:40:14.031Z,7.22
2023-01-24T03:42:50.438Z,7.97
2023-01-24T03:45:19.891Z,8.38
2023-01-24T03:48:05.772Z,9.88
2023-01-24T03:53:21.899Z,7.97
2023-01-24T03:55:53.232Z,8.43
2023-01-24T03:58:20.012Z,5.88
2023-01-24T04:00:46.623Z,8.43
2023-01-24T04:03:13.342Z,8.45
2023-01-24T04:05:40.266Z,9.07
2023-01-24T04:08:08.773Z,7.97
2023-01-24T04:10:35.853Z,7.70
2023-01-24T04:13:02.560Z,8.55
2023-01-24T04:15:31.892Z,10.38
2023-01-24T04:18:00.286Z,7.32
2023-01-24T04:20:28.940Z,9.20
2023-01-24T04:22:55.727Z,7.18
2023-01-24T04:25:22.996Z,6.85
2023-01-24T04:27:49.868Z,7.95
2023-01-24T04:30:17.400Z,8.75
2023-01-24T04:32:44.483Z,6.93
2023-01-24T04:35:20.880Z,8.50
2023-01-24T04:37:48.317Z,7.10
2023-01-24T04:40:15.785Z,6.63
2023-01-24T04:42:43.374Z,10.02
2023-01-24T04:45:11.618Z,8.05
2023-01-24T04:47:38.283Z,6.18
2023-01-24T04:50:05.491Z,5.55
2023-01-24T04:52:32.167Z,6.70
2023-01-24T04:54:58.750Z,6.35
2023-01-24T04:59:51.908Z,7.07
2023-01-24T05:02:18.722Z,6.13
2023-01-24T05:04:45.406Z,5.60
2023-01-24T05:07:12.183Z,5.32
2023-01-24T05:09:38.791Z,7.07
2023-01-24T05:12:05.820Z,6.32
2023-01-24T05:14:32.433Z,7.40
2023-01-24T05:16:59.051Z,5.97
2023-01-24T05:19:25.684Z,5.88
2023-01-24T05:21:52.437Z,5.65
2023-01-24T05:24:20.128Z,6.95
2023-01-24T05:26:46.807Z,7.82
2023-01-24T05:31:40.030Z,7.47
2023-01-24T05:34:06.690Z,6.07
2023-01-24T05:38:59.831Z,5.68
2023-01-24T05:43:53.073Z,7.07
2023-01-24T05:46:21.775Z,7.60
2023-01-24T05:48:49.193Z,8.13
2023-01-24T05:51:18.737Z,8.27
2023-01-24T05:53:45.678Z,6.65
2023-01-24T05:56:15.416Z,6.82
2023-01-24T05:58:43.675Z,7.22
2023-01-24T06:01:12.710Z,6.28
2023-01-24T06:03:41.942Z,7.63
2023-01-24T06:06:10.125Z,7.40
2023-01-24T06:08:36.876Z,6.65
2023-01-24T06:11:10.020Z,8.52
2023-01-24T06:13:37.078Z,7.47
2023-01-24T06:16:18.689Z,6.85
2023-01-24T06:18:46.001Z,8.77
2023-01-24T06:21:15.570Z,9.30
2023-01-24T06:23:42.658Z,7.47
2023-01-24T06:26:12.875Z,7.47
2023-01-24T06:28:40.210Z,7.85
2023-01-24T06:31:18.583Z,8.00
2023-01-24T06:34:08.256Z,8.13
2023-01-24T06:36:58.398Z,8.23
2023-01-24T06:39:25.395Z,6.57
2023-01-24T06:41:52.296Z,8.15
2023-01-24T06:44:19.279Z,8.82
2023-01-24T06:46:45.872Z,8.98
2023-01-24T06:51:39.293Z,7.50
2023-01-24T06:54:05.947Z,8.43
2023-01-24T06:56:32.758Z,8.48
2023-01-24T06:58:59.395Z,7.55
2023-01-24T07:01:26.075Z,8.77
2023-01-24T07:03:52.760Z,8.43
2023-01-24T07:06:20.472Z,10.65
2023-01-24T07:08:47.093Z,7.68
2023-01-24T07:13:40.273Z,8.32
2023-01-24T07:18:33.932Z,8.05
2023-01-24T07:21:00.742Z,7.85
2023-01-24T07:23:33.424Z,8.75
2023-01-24T07:26:00.560Z,9.35
2023-01-24T07:28:27.252Z,9.18
2023-01-24T07:30:54.684Z,10.45
2023-01-24T07:33:22.528Z,9.38
2023-01-24T07:35:49.155Z,9.20
2023-01-24T07:38:15.860Z,9.60
2023-01-24T07:40:43.035Z,8.50
2023-01-24T07:43:09.700Z,10.48
2023-01-24T07:45:39.054Z,8.48
2023-01-24T07:48:07.956Z,9.45
2023-01-24T07:50:35.311Z,9.27
2023-01-24T07:53:02.069Z,9.05
2023-01-24T07:55:28.914Z,9.23
2023-01-24T07:58:00.748Z,10.48
2023-01-24T08:00:27.667Z,11.20
2023-01-24T08:02:54.431Z,13.13
2023-01-24T08:05:21.268Z,14.13
2023-01-24T08:07:47.881Z,13.88
2023-01-24T08:12:41.512Z,12.50
2023-01-24T08:15:08.631Z,10.55
2023-01-24T08:17:36.919Z,9.77
2023-01-24T08:20:03.944Z,9.38
2023-01-24T08:22:30.571Z,10.20
2023-01-24T08:24:57.239Z,10.20
2023-01-24T08:27:24.120Z,9.95
2023-01-24T08:29:50.732Z,11.77
2023-01-24T08:34:44.119Z,11.95
2023-01-24T08:39:37.309Z,10.60
2023-01-24T08:42:04.074Z,11.55
2023-01-24T08:44:30.733Z,10.43
2023-01-24T08:46:57.369Z,10.88
2023-01-24T08:49:24.010Z,13.27
2023-01-24T08:51:53.288Z,12.57
2023-01-24T08:54:19.900Z,10.98
2023-01-24T08:59:13.052Z,10.27
2023-01-24T09:01:41.386Z,11.55
2023-01-24T09:04:09.784Z,11.55
2023-01-24T09:06:36.418Z,11.77
2023-01-24T09:09:04.978Z,12.93
2023-01-24T09:11:32.624Z,14.90
2023-01-24T09:13:59.392Z,14.25
2023-01-24T09:16:28.193Z,15.20
2023-01-24T09:18:55.850Z,13.48
2023-01-24T09:21:22.703Z,12.93
2023-01-24T09:23:49.413Z,14.82
2023-01-24T09:26:16.041Z,14.18
2023-01-24T09:31:10.443Z,13.88
2023-01-24T09:33:39.373Z,12.27
2023-01-24T09:36:11.351Z,11.55
2023-01-24T09:38:38.043Z,13.68
2023-01-24T09:41:38.909Z,12.40
2023-01-24T09:44:12.643Z,13.55
2023-01-24T09:46:44.135Z,10.95
2023-01-24T09:49:37.719Z,11.52
2023-01-24T09:52:08.235Z,13.90
2023-01-24T09:54:57.042Z,14.20
2023-01-24T09:57:30.027Z,13.77
2023-01-24T10:00:13.764Z,13.95
2023-01-24T10:02:40.557Z,15.05
2023-01-24T10:05:14.616Z,13.88
2023-01-24T10:07:57.753Z,13.50
2023-01-24T10:10:43.633Z,14.88
2023-01-24T10:14:04.484Z,12.88
2023-01-24T10:16:58.686Z,13.90
2023-01-24T10:19:49.898Z,11.90
2023-01-24T10:22:25.298Z,15.38
2023-01-24T10:25:01.318Z,16.13
2023-01-24T10:27:39.908Z,13.77
2023-01-24T10:30:18.794Z,12.52
2023-01-24T10:32:49.642Z,15.90
2023-01-24T10:35:41.025Z,14.15
2023-01-24T10:38:14.977Z,13.48
2023-01-24T10:41:21.776Z,12.40
2023-01-24T10:43:55.766Z,13.98
2023-01-24T10:47:00.720Z,13.52
2023-01-24T10:49:30.507Z,14.75
2023-01-24T10:52:13.460Z,15.52
2023-01-24T10:54:56.259Z,15.30
2023-01-24T10:57:43.083Z,40.63
2023-01-24T11:00:15.644Z,33.53
2023-01-24T11:02:43.291Z,18.48
2023-01-24T11:05:14.569Z,15.40
2023-01-24T11:07:47.555Z,13.25
2023-01-24T11:10:35.191Z,12.30
2023-01-24T11:13:04.048Z,15.50
2023-01-24T11:15:33.020Z,14.57
2023-01-24T11:18:07.928Z,14.85
2023-01-24T11:20:36.550Z,17.48
2023-01-24T11:23:19.082Z,13.93
2023-01-24T11:25:57.387Z,13.45
2023-01-24T11:28:32.852Z,13.70
2023-01-24T11:31:06.150Z,14.40
2023-01-24T11:33:51.805Z,14.48
2023-01-24T11:36:33.415Z,15.43
2023-01-24T11:39:10.154Z,14.02
2023-01-24T11:41:56.478Z,12.65
2023-01-24T11:44:44.361Z,12.90
2023-01-24T11:47:22.573Z,13.10
2023-01-24T11:50:24.953Z,12.88
2023-01-24T11:53:09.793Z,11.30
2023-01-24T11:56:03.899Z,14.00
2023-01-24T11:58:44.049Z,15.25
2023-01-24T12:01:22.166Z,12.68
2023-01-24T12:04:01.707Z,14.82
2023-01-24T12:07:01.688Z,13.40
2023-01-24T12:09:34.946Z,11.82
2023-01-24T12:12:21.561Z,11.27
2023-01-24T12:15:08.895Z,13.75
2023-01-24T12:18:00.312Z,12.30
2023-01-24T12:20:59.922Z,13.18
2023-01-24T12:23:39.390Z,14.20
2023-01-24T12:26:29.436Z,11.13
2023-01-24T12:29:00.860Z,12.50
2023-01-24T12:31:47.223Z,13.38
2023-01-24T12:34:38.846Z,13.25
2023-01-24T12:37:16.635Z,13.23
2023-01-24T12:39:55.317Z,12.93
2023-01-24T12:42:33.976Z,14.07
2023-01-24T12:45:05.628Z,14.10
2023-01-24T12:47:45.413Z,12.98
2023-01-24T12:50:25.939Z,11.65
2023-01-24T12:53:17.036Z,12.82
2023-01-24T12:56:09.519Z,13.75
2023-01-24T12:58:40.397Z,12.02
2023-01-24T13:01:27.093Z,12.48
2023-01-24T13:04:20.315Z,12.75
2023-01-24T13:06:57.386Z,14.75
2023-01-24T13:09:43.474Z,14.27
2023-01-24T13:12:25.271Z,13.77
2023-01-24T13:15:15.326Z,12.95
2023-01-24T13:18:08.018Z,12.80
2023-01-24T13:21:00.318Z,13.98
2023-01-24T13:23:32.616Z,10.88
2023-01-24T13:26:43.893Z,11.43
2023-01-24T13:29:33.080Z,12.82
2023-01-24T13:32:08.038Z,13.23
2023-01-24T13:34:40.835Z,12.35
2023-01-24T13:37:15.398Z,10.18
2023-01-24T13:39:43.149Z,13.13
2023-01-24T13:42:20.658Z,10.57
2023-01-24T13:44:47.607Z,12.82
2023-01-24T13:47:14.365Z,10.82
2023-01-24T13:49:54.828Z,10.32
2023-01-24T13:52:33.718Z,9.80
2023-01-24T13:55:02.345Z,10.10
2023-01-24T13:57:31.048Z,10.73
2023-01-24T14:00:21.858Z,11.38
2023-01-24T14:02:48.507Z,8.80
2023-01-24T14:05:30.412Z,7.72
2023-01-24T14:07:57.002Z,11.32
2023-01-24T14:10:38.895Z,11.15
2023-01-24T14:13:26.698Z,11.07
2023-01-24T14:15:54.305Z,10.85
2023-01-24T14:18:39.645Z,11.88
2023-01-24T14:21:15.068Z,11.15
2023-01-24T14:23:42.473Z,12.23
2023-01-24T14:26:16.651Z,9.75
2023-01-24T14:29:04.898Z,10.02
2023-01-24T14:31:37.522Z,9.30
2023-01-24T14:37:03.483Z,9.98
2023-01-24T14:39:30.161Z,9.77
2023-01-24T14:42:03.079Z,11.02
2023-01-24T14:44:34.404Z,11.32
2023-01-24T14:47:04.028Z,11.43
2023-01-24T14:49:44.188Z,11.73
2023-01-24T14:52:23.386Z,16.40
2023-01-24T14:54:55.802Z,13.07
2023-01-24T14:57:30.598Z,14.90
2023-01-24T15:00:12.606Z,13.95
2023-01-24T15:03:02.564Z,8.68
2023-01-24T15:05:33.888Z,11.05
2023-01-24T15:08:02.816Z,7.85
2023-01-24T15:10:33.055Z,9.40
2023-01-24T15:13:02.969Z,6.53
2023-01-24T15:15:30.757Z,7.93
2023-01-24T15:18:21.921Z,8.45
2023-01-24T15:20:49.188Z,7.80
2023-01-24T15:23:22.613Z,10.43
2023-01-24T15:25:49.348Z,10.43
2023-01-24T15:28:29.185Z,8.10
2023-01-24T15:30:59.772Z,8.18
2023-01-24T15:33:40.992Z,8.15
2023-01-24T15:36:43.767Z,7.20
2023-01-24T15:39:14.693Z,7.80
2023-01-24T15:42:00.119Z,7.70
2023-01-24T15:44:26.765Z,8.30
2023-01-24T15:47:16.827Z,8.85
2023-01-24T15:50:23.821Z,6.75
2023-01-24T15:53:13.251Z,10.05
2023-01-24T15:55:40.427Z,7.22
2023-01-24T15:58:09.772Z,12.27
2023-01-24T16:00:37.061Z,9.63
2023-01-24T16:03:04.121Z,8.05
2023-01-24T16:05:30.755Z,7.43
2023-01-24T16:07:57.355Z,8.50
2023-01-24T16:10:23.955Z,11.27
2023-01-24T16:12:52.460Z,11.00
2023-01-24T16:15:21.112Z,8.30
2023-01-24T16:17:47.872Z,9.25
2023-01-24T16:20:20.961Z,7.68
2023-01-24T16:22:48.004Z,8.98
2023-01-24T16:25:16.028Z,9.95
2023-01-24T16:27:43.194Z,9.50
2023-01-24T16:30:21.962Z,9.75
2023-01-24T16:32:49.001Z,6.20
2023-01-24T16:35:16.603Z,8.32
2023-01-24T16:37:43.769Z,9.70
2023-01-24T16:40:12.228Z,7.25
2023-01-24T16:42:44.774Z,8.40
2023-01-24T16:45:20.033Z,7.75
2023-01-24T16:47:47.164Z,8.85
2023-01-24T16:50:14.827Z,12.48
2023-01-24T16:52:41.476Z,8.07
2023-01-24T16:55:09.069Z,9.63
2023-01-24T16:57:35.679Z,8.90
2023-01-24T17:00:07.964Z,12.07
2023-01-24T17:02:34.937Z,9.52
2023-01-24T17:05:01.601Z,9.85
2023-01-24T17:07:30.822Z,9.73
2023-01-24T17:09:57.617Z,9.02
2023-01-24T17:12:24.251Z,8.77
2023-01-24T17:14:50.842Z,10.55
2023-01-24T17:19:44.429Z,8.73
2023-01-24T17:22:11.069Z,9.73
2023-01-24T17:24:37.682Z,12.32
2023-01-24T17:27:04.482Z,12.15
2023-01-24T17:29:31.129Z,9.77
2023-01-24T17:31:58.500Z,13.40
2023-01-24T17:34:25.431Z,9.68
2023-01-24T17:36:52.945Z,10.23
2023-01-24T17:39:20.015Z,9.95
2023-01-24T17:41:46.946Z,9.18
2023-01-24T17:44:13.569Z,9.10
2023-01-24T17:46:40.362Z,9.23
2023-01-24T17:49:07.145Z,9.23
2023-01-24T17:51:36.890Z,8.75
2023-01-24T17:54:06.754Z,10.25
2023-01-24T17:56:33.528Z,11.50
2023-01-24T17:59:00.439Z,13.25
2023-01-24T18:01:27.467Z,11.07
2023-01-24T18:03:54.177Z,11.00
2023-01-24T18:06:20.913Z,10.60
2023-01-24T18:08:48.073Z,12.10
2023-01-24T18:11:17.049Z,12.40
2023-01-24T18:13:44.566Z,12.30
2023-01-24T18:16:14.051Z,10.77
2023-01-24T18:18:41.228Z,10.35
2023-01-24T18:21:25.269Z,11.40
2023-01-24T18:23:53.667Z,9.48
2023-01-24T18:26:20.442Z,10.70
2023-01-24T18:28:47.134Z,11.07
2023-01-24T18:31:14.981Z,12.50
2023-01-24T18:33:42.307Z,10.38
2023-01-24T18:36:16.125Z,10.52
2023-01-24T18:38:44.580Z,12.48
2023-01-24T18:41:11.577Z,12.27
2023-01-24T18:43:38.511Z,8.40
2023-01-24T18:46:07.233Z,11.38
2023-01-24T18:48:35.402Z,11.10
2023-01-24T18:51:10.608Z,11.20
2023-01-24T18:53:37.344Z,10.95
2023-01-24T18:56:05.812Z,11.32
2023-01-24T18:58:34.822Z,11.13
2023-01-24T19:01:10.250Z,10.70
2023-01-24T19:03:36.959Z,9.15
2023-01-24T19:06:03.859Z,10.73
2023-01-24T19:08:30.488Z,10.95
2023-01-24T19:10:57.147Z,10.10
2023-01-24T19:13:23.776Z,10.05
2023-01-24T19:15:51.521Z,8.48
2023-01-24T19:18:20.182Z,10.10
2023-01-24T19:20:47.065Z,8.82
2023-01-24T19:23:13.680Z,7.00
2023-01-24T19:25:40.339Z,8.70
2023-01-24T19:28:06.921Z,8.35
2023-01-24T19:30:33.574Z,9.80
2023-01-24T19:33:00.325Z,8.93
2023-01-24T19:35:27.011Z,8.68
2023-01-24T19:37:54.763Z,7.63
2023-01-24T19:40:21.746Z,9.98
2023-01-24T19:42:48.739Z,8.93
2023-01-24T19:45:16.511Z,8.73
2023-01-24T19:47:44.594Z,9.45
2023-01-24T19:50:13.042Z,8.32
2023-01-24T19:52:43.476Z,9.40
2023-01-24T19:55:10.607Z,8.10
2023-01-24T19:57:40.171Z,8.10
2023-01-24T20:00:10.703Z,9.57
2023-01-24T20:02:37.852Z,8.65
2023-01-24T20:05:05.104Z,10.77
2023-01-24T20:07:31.956Z,12.38
2023-01-24T20:10:03.458Z,10.75
2023-01-24T20:12:30.294Z,9.70
2023-01-24T20:14:57.055Z,11.43
2023-01-24T20:17:25.361Z,9.77
2023-01-24T20:20:00.200Z,10.07
2023-01-24T20:22:27.704Z,9.38
2023-01-24T20:25:02.502Z,11.43
2023-01-24T20:27:34.749Z,8.82
2023-01-24T20:30:01.645Z,10.48
2023-01-24T20:32:35.637Z,9.88
2023-01-24T20:35:02.792Z,14.57
2023-01-24T20:37:30.343Z,10.73
2023-01-24T20:39:58.371Z,10.13
2023-01-24T20:42:25.031Z,10.93
2023-01-24T20:44:51.611Z,10.13
2023-01-24T20:47:18.387Z,10.02
2023-01-24T20:49:45.102Z,9.60
2023-01-24T20:52:12.108Z,8.82
2023-01-24T20:54:38.727Z,12.00
2023-01-24T20:57:05.473Z,10.65
2023-01-24T20:59:32.107Z,9.05
2023-01-24T21:01:58.911Z,11.32
2023-01-24T21:04:25.630Z,12.40
2023-01-24T21:06:52.326Z,11.85
2023-01-24T21:09:19.133Z,10.35
2023-01-24T21:11:47.727Z,9.48
2023-01-24T21:14:16.958Z,9.00
2023-01-24T21:16:47.512Z,19.90
2023-01-24T21:19:18.738Z,13.23
2023-01-24T21:21:47.687Z,11.63
2023-01-24T21:24:31.991Z,9.40
2023-01-24T21:27:01.243Z,9.85
2023-01-24T21:29:29.579Z,9.48
2023-01-24T21:31:57.285Z,9.15
2023-01-24T21:34:24.767Z,8.55
2023-01-24T21:36:52.971Z,10.93
2023-01-24T21:39:20.066Z,11.48
2023-01-24T21:41:58.029Z,9.77
2023-01-24T21:44:32.917Z,10.15
2023-01-24T21:47:02.927Z,8.60
2023-01-24T21:49:29.815Z,8.38
2023-01-24T21:52:00.185Z,12.07
2023-01-24T21:54:32.155Z,11.52
2023-01-24T21:57:31.223Z,10.15
2023-01-24T22:00:00.584Z,9.95
2023-01-24T22:02:30.708Z,10.85
2023-01-24T22:04:57.898Z,9.80
2023-01-24T22:07:26.238Z,10.57
2023-01-24T22:09:54.743Z,9.98
2023-01-24T22:12:21.760Z,13.02
2023-01-24T22:14:49.798Z,10.88
2023-01-24T22:17:19.643Z,10.68
2023-01-24T22:19:51.899Z,10.70
2023-01-24T22:22:51.447Z,13.27
2023-01-24T22:25:31.180Z,11.65
2023-01-24T22:27:58.270Z,12.93
2023-01-24T22:30:26.590Z,11.55
2023-01-24T22:32:59.835Z,10.68
2023-01-24T22:35:29.237Z,10.48
2023-01-24T22:37:59.325Z,12.20
2023-01-24T22:40:29.247Z,13.15
2023-01-24T22:42:58.602Z,13.55
2023-01-24T22:45:30.364Z,13.18
2023-01-24T22:47:59.304Z,11.02
2023-01-24T22:50:28.285Z,12.40
2023-01-24T22:52:56.106Z,13.48
2023-01-24T22:55:26.301Z,11.75
2023-01-24T22:57:56.988Z,11.05
2023-01-24T23:00:24.934Z,10.85
2023-01-24T23:02:51.849Z,10.98
2023-01-24T23:05:21.781Z,11.10
2023-01-24T23:07:49.849Z,13.23
2023-01-24T23:10:17.729Z,11.98
2023-01-24T23:13:04.310Z,11.30
2023-01-24T23:15:50.401Z,11.07
2023-01-24T23:18:43.068Z,11.23
2023-01-24T23:21:30.401Z,11.05
2023-01-24T23:24:01.707Z,12.10
2023-01-24T23:26:30.742Z,12.85
2023-01-24T23:29:37.221Z,12.30
2023-01-24T23:32:31.940Z,13.38
2023-01-24T23:35:00.948Z,14.35
2023-01-24T23:37:31.901Z,9.18
2023-01-24T23:39:59.295Z,11.82
2023-01-24T23:42:27.577Z,11.40
2023-01-24T23:44:55.171Z,12.00
2023-01-24T23:47:22.112Z,12.20
2023-01-24T23:49:50.997Z,12.20
2023-01-24T23:52:19.416Z,13.10
2023-01-24T23:54:46.087Z,11.13
2023-01-24T23:57:12.865Z,13.52
2023-01-24T23:59:39.514Z,11.63
